Time;durP1;ratioP1;P1;durP2;ratioP2;P2;SDS_P1;SDS_P2;PMS_P1;PMS_P2;Temp;Humidity;BMP_temperature;BMP_pressure;BME280_temperature;BME280_humidity;BME280_pressure;Samples;Min_cycle;Max_cycle;Signal;HPM_P1;HPM_P2
2023/10/08 00:01:21;;;;;;;0.97;0.97;;;22.10;71.30;;;23.04;51.48;102089.94;3078699;46;21013;-81
2023/10/08 00:03:50;;;;;;;1.13;1.03;;;22.10;71.30;;;23.04;51.17;102097.16;3079426;46;20434;-81
2023/10/08 00:06:21;;;;;;;0.80;0.80;;;22.10;71.30;;;23.04;51.30;102099.84;3078393;46;20447;-81
2023/10/08 00:08:51;;;;;;;0.80;0.80;;;22.10;71.30;;;23.02;51.15;102097.41;3078801;46;21064;-81
2023/10/08 00:11:22;;;;;;;1.67;0.80;;;22.10;71.30;;;23.04;51.24;102106.06;3078566;46;20435;-81
2023/10/08 00:13:55;;;;;;;0.90;0.80;;;22.10;71.30;;;23.04;51.29;102105.22;3079407;46;20422;-81
2023/10/08 00:16:24;;;;;;;1.00;0.90;;;22.10;71.50;;;23.04;51.10;102105.22;3078726;46;20458;-81
2023/10/08 00:18:52;;;;;;;0.80;0.80;;;22.10;71.30;;;23.04;51.07;102110.59;3079082;46;20503;-81
2023/10/08 00:21:28;;;;;;;1.07;0.90;;;22.10;71.30;;;23.03;51.27;102114.34;3078596;46;20422;-81
2023/10/08 00:23:59;;;;;;;1.10;1.00;;;22.10;71.30;;;23.02;51.31;102112.69;3079774;46;20431;-81
2023/10/08 00:26:32;;;;;;;1.10;1.10;;;22.10;71.30;;;23.01;51.20;102108.38;3080847;46;20447;-81
2023/10/08 00:29:15;;;;;;;1.23;1.13;;;22.10;71.30;;;23.01;51.03;102116.44;3080586;46;20527;-81
2023/10/08 00:31:45;;;;;;;0.73;0.67;;;22.10;71.30;;;23.00;51.48;102117.47;3080724;46;20435;-81
2023/10/08 00:34:14;;;;;;;1.83;1.07;;;22.10;71.30;;;23.01;51.38;102127.19;3081050;46;20435;-81
2023/10/08 00:36:47;;;;;;;0.87;0.87;;;22.10;71.40;;;22.99;51.22;102137.34;3080967;46;20575;-81
2023/10/08 00:39:22;;;;;;;1.20;0.93;;;22.10;71.30;;;22.98;51.41;102135.69;3080844;46;20572;-81
2023/10/08 00:41:58;;;;;;;0.90;0.90;;;22.10;71.30;;;22.99;51.23;102145.41;3080931;46;21067;-81
2023/10/08 00:44:30;;;;;;;0.77;0.77;;;22.10;71.30;;;22.99;50.90;102156.13;3079844;46;20427;-81
2023/10/08 00:47:01;;;;;;;1.70;0.90;;;22.10;71.30;;;22.98;50.91;102141.88;3080633;46;20423;-81
2023/10/08 00:57:35;;;;;;;1.00;0.93;;;22.10;71.30;;;22.95;51.13;102160.28;3080707;46;20427;-81
2023/10/08 01:00:16;;;;;;;0.70;0.70;;;22.10;71.30;;;22.95;51.38;102165.66;3079452;46;20487;-81
2023/10/08 01:02:46;;;;;;;1.53;1.20;;;22.10;71.30;;;22.95;51.34;102165.66;3079571;46;20450;-81
2023/10/08 01:05:25;;;;;;;1.20;1.00;;;22.10;71.30;;;22.95;51.23;102168.34;3079425;46;20514;-81
2023/10/08 01:07:55;;;;;;;0.97;0.97;;;22.00;71.20;;;22.94;51.43;102169.41;3079181;46;20561;-81
2023/10/08 01:10:24;;;;;;;1.20;1.10;;;22.00;71.20;;;22.93;51.49;102168.56;3080156;46;21141;-81
2023/10/08 01:13:05;;;;;;;0.90;0.90;;;22.00;71.20;;;22.93;51.10;102179.31;3080798;46;20459;-81
2023/10/08 01:15:35;;;;;;;0.70;0.70;;;22.00;71.20;;;22.92;51.19;102181.19;3080645;46;20571;-81
2023/10/08 01:18:06;;;;;;;0.80;0.80;;;22.00;71.20;;;22.91;51.23;102176.03;3080702;46;20459;-81
2023/10/08 01:20:38;;;;;;;1.13;1.07;;;22.00;71.30;;;22.92;51.08;102166.13;3080106;46;20463;-81
2023/10/08 01:23:10;;;;;;;0.77;0.70;;;22.00;71.30;;;22.92;51.48;102150.81;3080854;46;20447;-81
2023/10/08 01:25:50;;;;;;;1.10;1.10;;;22.00;71.40;;;22.92;51.20;102144.63;3080010;46;20618;-81
2023/10/08 01:28:25;;;;;;;0.90;0.90;;;22.00;71.20;;;22.92;51.30;102154.31;3079993;46;21113;-81
2023/10/08 01:30:57;;;;;;;1.90;0.90;;;22.00;71.20;;;22.92;51.32;102155.38;3080325;46;20443;-81
2023/10/08 01:33:37;;;;;;;0.80;0.80;;;22.00;71.30;;;22.90;51.29;102167.16;3080636;46;20531;-81
2023/10/08 01:36:08;;;;;;;1.10;0.80;;;22.00;71.30;;;22.90;51.32;102172.53;3080391;46;20448;-81
2023/10/08 01:38:36;;;;;;;0.90;0.90;;;22.00;71.30;;;22.90;51.38;102167.16;3080555;46;20459;-81
2023/10/08 01:41:18;;;;;;;1.00;1.00;;;22.00;71.30;;;22.89;51.21;102162.81;3080616;46;20443;-81
2023/10/08 01:43:52;;;;;;;0.80;0.80;;;22.00;71.30;;;22.89;51.24;102156.66;3080527;46;20423;-81
2023/10/08 01:46:22;;;;;;;0.73;0.73;;;22.00;71.30;;;22.89;51.36;102149.38;3079575;46;20460;-81
2023/10/08 01:48:55;;;;;;;0.80;0.80;;;22.00;71.30;;;22.88;51.28;102155.00;3080062;46;20523;-81
2023/10/08 01:51:36;;;;;;;2.53;0.80;;;22.00;71.30;;;22.88;51.14;102139.69;3080290;46;20431;-81
2023/10/08 01:54:11;;;;;;;0.90;0.90;;;22.00;71.20;;;22.88;51.33;102155.81;3080338;46;20472;-81
2023/10/08 01:56:41;;;;;;;0.80;0.80;;;22.00;71.30;;;22.87;51.46;102172.13;3080449;46;20508;-81
2023/10/08 01:59:14;;;;;;;1.13;0.97;;;22.00;71.40;;;22.86;51.19;102167.81;3080097;46;20438;-81
2023/10/08 02:01:45;;;;;;;0.70;0.70;;;22.00;71.30;;;22.86;51.50;102163.28;3079946;46;20434;-81
2023/10/08 02:04:16;;;;;;;1.03;0.90;;;22.00;71.30;;;22.86;51.45;102168.66;3080474;46;20439;-81
2023/10/08 02:06:45;;;;;;;1.23;0.97;;;22.00;71.30;;;22.86;51.42;102170.50;3079676;46;20500;-81
2023/10/08 02:09:15;;;;;;;0.70;0.70;;;22.00;71.30;;;22.85;51.44;102153.56;3080195;46;20439;-81
2023/10/08 02:11:53;;;;;;;0.70;0.70;;;22.00;71.30;;;22.84;51.45;102154.59;3079844;46;20427;-81
2023/10/08 02:14:22;;;;;;;0.87;0.87;;;21.90;71.20;;;22.85;51.76;102147.38;3079870;46;20435;-81
2023/10/08 02:17:01;;;;;;;0.77;0.77;;;22.00;71.30;;;22.85;51.26;102142.81;3079741;46;21103;-81
2023/10/08 02:19:29;;;;;;;0.80;0.80;;;22.00;71.30;;;22.84;51.62;102149.22;3080119;46;21130;-81
2023/10/08 02:21:58;;;;;;;0.70;0.70;;;21.90;71.20;;;22.85;51.33;102164.31;3080048;46;20502;-81
2023/10/08 02:24:30;;;;;;;0.90;0.90;;;21.90;71.20;;;22.85;51.45;102158.09;3079900;46;20431;-81
2023/10/08 02:26:59;;;;;;;0.80;0.80;;;21.90;71.50;;;22.84;51.42;102161.84;3080003;46;21087;-81
2023/10/08 02:29:30;;;;;;;0.87;0.87;;;22.00;71.30;;;22.84;51.56;102170.69;3079371;46;20519;-81
2023/10/08 02:31:59;;;;;;;0.90;0.90;;;21.90;71.30;;;22.83;51.46;102177.13;3079064;46;21011;-82
2023/10/08 02:34:27;;;;;;;0.80;0.80;;;21.90;71.20;;;22.83;51.08;102184.38;3080228;46;20458;-80
2023/10/08 02:36:56;;;;;;;1.07;0.80;;;21.90;71.30;;;22.83;51.30;102192.41;3079735;46;20427;-81
2023/10/08 02:39:29;;;;;;;0.80;0.80;;;21.90;71.20;;;22.83;51.18;102190.56;3079733;46;20572;-81
2023/10/08 02:42:01;;;;;;;0.70;0.70;;;21.90;71.20;;;22.83;51.25;102187.06;3079588;46;20439;-81
2023/10/08 02:44:30;;;;;;;1.10;1.00;;;21.90;71.20;;;22.82;51.50;102180.84;3079450;46;20427;-81
2023/10/08 02:46:59;;;;;;;0.80;0.70;;;21.90;71.20;;;22.81;51.44;102181.91;3079595;46;21122;-81
2023/10/08 02:49:30;;;;;;;0.70;0.70;;;21.90;71.20;;;22.80;51.25;102198.22;3078863;46;20496;-81
2023/10/08 02:51:58;;;;;;;0.93;0.80;;;21.90;71.20;;;22.79;51.38;102200.09;3079773;46;20452;-81
2023/10/08 02:54:36;;;;;;;0.77;0.77;;;21.90;71.20;;;22.80;51.21;102200.91;3079427;46;20423;-81
2023/10/08 02:57:10;;;;;;;1.07;0.80;;;21.90;71.20;;;22.78;51.23;102219.94;3079751;46;20517;-81
2023/10/08 02:59:39;;;;;;;0.80;0.80;;;21.90;71.20;;;22.78;51.31;102230.69;3078372;46;20439;-81
2023/10/08 03:02:21;;;;;;;0.57;0.57;;;21.90;71.20;;;22.79;51.20;102228.81;3079492;46;20423;-81
2023/10/08 03:04:52;;;;;;;0.90;0.90;;;21.90;71.20;;;22.76;51.56;102219.34;3078785;46;20431;-81
2023/10/08 03:07:43;;;;;;;1.10;0.90;;;21.90;71.30;;;22.76;51.21;102221.19;3078481;46;21141;-82
2023/10/08 03:10:17;;;;;;;0.70;0.70;;;21.90;71.30;;;22.75;51.32;102223.03;3079285;46;20464;-81
2023/10/08 03:12:46;;;;;;;1.43;0.77;;;21.90;71.30;;;22.74;51.28;102217.91;3079508;46;20444;-81
2023/10/08 03:15:38;;;;;;;0.90;0.80;;;21.90;71.30;;;22.74;51.73;102236.69;3078211;46;20427;-81
2023/10/08 03:18:10;;;;;;;0.97;0.90;;;21.90;71.30;;;22.74;51.43;102240.22;3079448;46;21096;-81
2023/10/08 03:20:42;;;;;;;0.80;0.70;;;21.90;71.30;;;22.73;51.69;102233.19;3078903;46;20435;-81
2023/10/08 03:23:23;;;;;;;1.30;0.87;;;21.90;71.20;;;22.74;51.65;102234.00;3079359;46;20427;-81
2023/10/08 03:26:40;;;;;;;1.03;0.77;;;21.90;71.30;;;22.72;51.46;102226.19;3078435;46;21056;-81
2023/10/08 03:28:57;;;;;;;0.60;0.60;;;21.90;71.30;;;22.72;51.32;102215.44;3079148;46;20561;-81
2023/10/08 03:32:05;;;;;;;0.77;0.77;;;21.80;71.10;;;22.71;51.52;102229.06;3077761;46;21136;-81
2023/10/08 03:34:27;;;;;;;0.70;0.70;;;21.80;71.10;;;22.70;51.39;102236.31;3078940;46;20499;-81
2023/10/08 03:37:05;;;;;;;0.90;0.90;;;21.80;71.20;;;22.71;51.47;102246.00;3078295;46;20505;-81
2023/10/08 03:39:51;;;;;;;0.80;0.80;;;21.80;71.20;;;22.70;51.60;102265.03;3078566;46;20476;-81
2023/10/08 03:42:24;;;;;;;0.70;0.70;;;21.80;71.20;;;22.69;51.50;102272.25;3078626;46;21024;-81
2023/10/08 03:44:55;;;;;;;0.60;0.60;;;21.80;71.20;;;22.69;51.69;102279.50;3077988;46;20431;-81
2023/10/08 03:47:26;;;;;;;0.60;0.60;;;21.80;71.20;;;22.69;51.46;102285.69;3079149;46;20439;-81
2023/10/08 03:49:55;;;;;;;1.10;0.80;;;21.80;71.20;;;22.68;51.73;102288.56;3080408;46;20461;-81
2023/10/08 03:52:25;;;;;;;1.20;0.97;;;21.80;71.30;;;22.68;51.41;102294.78;3078948;46;20873;-80
2023/10/08 03:57:41;;;;;;;0.60;0.60;;;21.80;71.30;;;22.66;51.62;102275.38;3079109;46;20448;-81
2023/10/08 04:00:17;;;;;;;0.80;0.80;;;21.80;71.20;;;22.66;51.31;102270.00;3080686;46;20434;-81
2023/10/08 04:03:07;;;;;;;0.63;0.63;;;21.80;71.30;;;22.66;51.45;102259.25;3081641;46;20442;-81
2023/10/08 04:05:44;;;;;;;2.13;0.90;;;21.80;71.30;;;22.66;51.50;102258.44;3081325;46;20541;-80
2023/10/08 04:08:24;;;;;;;0.70;0.70;;;21.80;71.30;;;22.65;51.50;102257.63;3081476;46;20451;-82
2023/10/08 04:13:48;;;;;;;1.03;0.80;;;21.80;71.20;;;22.63;51.83;102281.16;3080553;46;20463;-81
2023/10/08 04:16:19;;;;;;;1.43;0.80;;;21.80;71.30;;;22.64;51.62;102288.19;3081374;46;20572;-81
2023/10/08 04:18:50;;;;;;;0.70;0.70;;;21.80;71.20;;;22.63;51.42;102299.97;3081315;46;20423;-81
2023/10/08 04:21:20;;;;;;;1.37;1.20;;;21.80;71.20;;;22.63;51.53;102281.16;3081137;46;20451;-81
2023/10/08 04:23:51;;;;;;;0.93;0.93;;;21.80;71.30;;;22.63;51.37;102286.53;3081666;46;20459;-81
2023/10/08 04:26:26;;;;;;;0.70;0.70;;;21.80;71.30;;;22.62;51.54;102290.28;3081345;46;20434;-81
2023/10/08 04:29:02;;;;;;;0.90;0.60;;;21.80;71.30;;;22.61;51.53;102304.72;3081417;46;20427;-81
2023/10/08 04:31:37;;;;;;;1.13;0.67;;;21.80;71.30;;;22.61;51.65;102310.09;3080709;46;21013;-81
2023/10/08 04:34:26;;;;;;;1.00;0.90;;;21.80;71.30;;;22.61;51.69;102299.34;3080295;46;21024;-81
2023/10/08 04:36:57;;;;;;;0.87;0.83;;;21.80;71.30;;;22.61;51.56;102299.34;3081031;46;20442;-81
2023/10/08 04:39:32;;;;;;;0.83;0.83;;;21.80;71.30;;;22.60;51.57;102313.81;3080406;46;20998;-81
2023/10/08 04:42:12;;;;;;;0.80;0.80;;;21.80;71.30;;;22.61;51.62;102320.84;3080332;46;20431;-81
2023/10/08 04:44:41;;;;;;;0.97;0.80;;;21.80;71.30;;;22.60;51.64;102311.13;3080390;46;20467;-81
2023/10/08 04:47:27;;;;;;;0.70;0.70;;;21.80;71.30;;;22.59;51.33;102309.47;3080971;46;20524;-81
2023/10/08 04:49:56;;;;;;;1.07;0.67;;;21.80;71.30;;;22.59;51.78;102309.47;3080654;46;20468;-81
2023/10/08 04:52:27;;;;;;;0.93;0.83;;;21.80;71.30;;;22.59;51.49;102312.16;3080748;46;20423;-81
2023/10/08 04:54:56;;;;;;;0.63;0.63;;;21.80;71.30;;;22.60;51.71;102315.66;3080779;46;21050;-81
2023/10/08 04:57:30;;;;;;;0.70;0.70;;;21.70;71.20;;;22.59;51.46;102317.50;3080979;46;20583;-80
2023/10/08 04:59:58;;;;;;;0.60;0.53;;;21.70;71.20;;;22.59;51.48;102322.88;3080720;46;20471;-81
2023/10/08 05:02:36;;;;;;;0.73;0.73;;;21.70;71.20;;;22.60;51.58;102329.09;3080894;46;20557;-81
2023/10/08 05:10:32;;;;;;;0.90;0.60;;;21.80;71.30;;;22.58;51.58;102336.53;3080119;46;20438;-80
2023/10/08 05:15:33;;;;;;;0.80;0.70;;;21.70;71.20;;;22.57;51.42;102341.06;3080248;46;21019;-81
2023/10/08 05:18:23;;;;;;;0.70;0.70;;;21.70;71.20;;;22.57;51.92;102357.19;3080037;46;20455;-81
2023/10/08 05:23:20;;;;;;;0.60;0.60;;;21.70;71.20;;;22.56;51.62;102350.16;3080867;46;20501;-81
2023/10/08 05:34:23;;;;;;;1.00;0.80;;;21.70;71.20;;;22.52;51.74;102330.16;3080552;46;20456;-81
2023/10/08 05:39:42;;;;;;;0.83;0.70;;;21.70;71.20;;;22.53;51.53;102342.53;3080502;46;20473;-81
2023/10/08 05:42:16;;;;;;;0.97;0.70;;;21.70;71.20;;;22.53;51.76;102349.78;3080353;46;20488;-81
2023/10/08 05:45:00;;;;;;;0.70;0.70;;;21.70;71.20;;;22.52;51.52;102348.94;3079820;46;20444;-81
2023/10/08 05:55:34;;;;;;;0.70;0.70;;;21.70;71.20;;;22.52;51.75;102369.59;3080647;46;20431;-81
2023/10/08 06:03:35;;;;;;;0.70;0.70;;;21.70;71.20;;;22.52;51.66;102361.53;3080469;46;20567;-81
2023/10/08 06:08:52;;;;;;;0.50;0.50;;;21.70;71.20;;;22.51;51.65;102400.97;3080299;46;21135;-81
2023/10/08 06:14:16;;;;;;;1.17;0.80;;;21.70;71.20;;;22.51;51.55;102406.34;3080308;46;21396;-80
2023/10/08 06:16:46;;;;;;;0.50;0.50;;;21.70;71.30;;;22.50;51.84;102399.34;3079506;46;20423;-81
2023/10/08 06:19:15;;;;;;;0.60;0.60;;;21.70;71.20;;;22.52;51.54;102402.63;3079546;46;20568;-80
2023/10/08 06:21:45;;;;;;;0.60;0.60;;;21.70;71.20;;;22.52;51.59;102397.25;3079228;46;20448;-81
2023/10/08 06:24:16;;;;;;;0.83;0.70;;;21.70;71.20;;;22.53;51.75;102390.88;3080047;46;20435;-80
2023/10/08 06:26:48;;;;;;;0.50;0.50;;;21.70;71.20;;;22.53;51.46;102398.91;3079235;46;20572;-80
2023/10/08 06:29:26;;;;;;;1.03;0.67;;;21.70;71.20;;;22.54;51.79;102405.09;3079855;46;20498;-81
2023/10/08 06:32:01;;;;;;;1.00;0.60;;;21.70;71.20;;;22.54;51.69;102400.53;3079967;46;20450;-81
2023/10/08 06:34:31;;;;;;;0.70;0.60;;;21.70;71.20;;;22.53;51.78;102404.28;3079222;46;20452;-80
2023/10/08 06:37:01;;;;;;;0.60;0.60;;;21.70;71.20;;;22.54;51.67;102405.91;3078965;46;20423;-81
2023/10/08 06:39:47;;;;;;;0.70;0.70;;;21.70;71.20;;;22.54;51.47;102400.53;3080054;46;20942;-80
2023/10/08 06:42:17;;;;;;;0.70;0.70;;;21.70;71.10;;;22.54;51.44;102408.59;3079780;46;20439;-81
2023/10/08 06:44:48;;;;;;;0.80;0.77;;;21.70;71.10;;;22.56;51.44;102409.22;3079809;46;20460;-80
2023/10/08 06:47:16;;;;;;;2.60;0.70;;;21.70;71.10;;;22.55;51.42;102407.56;3079004;46;20454;-80
2023/10/08 06:49:46;;;;;;;1.00;0.67;;;21.70;71.10;;;22.58;51.67;102404.44;3079823;46;20446;-81
2023/10/08 06:52:14;;;;;;;0.90;0.67;;;21.70;71.10;;;22.58;51.34;102406.31;3078637;46;20444;-80
2023/10/08 06:54:43;;;;;;;0.83;0.70;;;21.70;71.10;;;22.58;51.38;102409.81;3079754;46;20432;-80
2023/10/08 06:57:13;;;;;;;0.87;0.73;;;21.70;71.10;;;22.59;51.23;102430.28;3079073;46;20451;-81
2023/10/08 06:59:42;;;;;;;1.37;0.80;;;21.70;71.10;;;22.59;51.57;102424.91;3079340;46;20438;-80
2023/10/08 07:02:11;;;;;;;0.70;0.70;;;21.70;71.10;;;22.60;51.03;102425.72;3079296;46;20491;-81
2023/10/08 07:04:42;;;;;;;0.63;0.63;;;21.70;71.10;;;22.60;51.40;102437.31;3079621;46;20448;-80
2023/10/08 07:07:18;;;;;;;0.60;0.60;;;21.70;71.10;;;22.61;51.33;102444.34;3079206;46;20455;-81
2023/10/08 07:09:48;;;;;;;0.80;0.80;;;21.70;71.00;;;22.62;51.18;102454.03;3079705;46;20439;-81
2023/10/08 07:12:16;;;;;;;0.70;0.70;;;21.70;71.00;;;22.63;51.28;102453.00;3079052;46;20459;-81
2023/10/08 07:14:46;;;;;;;0.60;0.60;;;21.80;71.20;;;22.64;51.22;102454.66;3079391;46;20423;-80
2023/10/08 07:17:19;;;;;;;0.73;0.73;;;21.80;71.10;;;22.64;51.26;102462.72;3079758;46;20593;-80
2023/10/08 07:19:50;;;;;;;0.60;0.60;;;21.80;71.00;;;22.65;51.18;102460.84;3078616;46;20435;-81
2023/10/08 07:22:22;;;;;;;0.93;0.73;;;21.80;71.00;;;22.66;51.36;102459.81;3078270;46;20470;-80
2023/10/08 07:24:51;;;;;;;0.70;0.70;;;21.80;71.00;;;22.66;51.33;102457.94;3079555;46;20511;-81
2023/10/08 07:27:29;;;;;;;0.77;0.77;;;21.80;71.00;;;22.67;51.12;102459.59;3078834;46;20493;-80
2023/10/08 07:30:01;;;;;;;0.90;0.90;;;21.80;71.00;;;22.68;51.36;102463.94;3079236;46;20439;-81
2023/10/08 07:32:34;;;;;;;0.60;0.60;;;21.80;70.90;;;22.69;51.40;102468.28;3079628;46;21150;-81
2023/10/08 07:38:09;;;;;;;1.57;0.70;;;21.80;70.80;;;22.71;51.11;102482.31;3080088;46;20451;-81
2023/10/08 07:40:37;;;;;;;0.80;0.70;;;21.90;70.90;;;22.72;51.27;102477.78;3081518;46;21101;-80
2023/10/08 07:43:08;;;;;;;0.97;0.73;;;21.90;70.90;;;22.74;51.08;102475.69;3082051;46;20427;-81
2023/10/08 07:45:36;;;;;;;1.10;0.90;;;21.80;70.70;;;22.76;51.07;102473.59;3081587;46;21220;-81
2023/10/08 07:48:09;;;;;;;0.70;0.67;;;21.80;70.70;;;22.77;50.94;102465.34;3081256;46;21017;-81
2023/10/08 07:50:43;;;;;;;0.60;0.60;;;21.90;70.80;;;22.78;50.69;102467.00;3081226;46;20584;-81
2023/10/08 07:53:17;;;;;;;0.60;0.60;;;21.80;70.70;;;22.80;50.97;102469.44;3080993;46;20497;-81
2023/10/08 07:55:47;;;;;;;1.17;0.90;;;21.80;70.70;;;22.81;51.06;102477.31;3081072;46;21056;-81
2023/10/08 07:58:17;;;;;;;0.80;0.80;;;21.90;70.70;;;22.83;50.87;102491.34;3080447;46;20934;-81
2023/10/08 08:00:51;;;;;;;1.30;0.53;;;21.90;70.70;;;22.84;50.81;102498.34;3080198;46;20463;-81
2023/10/08 08:03:20;;;;;;;0.60;0.60;;;21.90;70.70;;;22.86;50.73;102504.38;3081923;46;20423;-81
2023/10/08 08:05:52;;;;;;;0.47;0.47;;;21.90;70.70;;;22.90;50.93;102507.44;3080158;46;20546;-81
2023/10/08 08:08:22;;;;;;;0.70;0.70;;;21.90;70.60;;;22.92;50.82;102511.56;3080804;46;21148;-81
2023/10/08 08:10:57;;;;;;;0.70;0.53;;;21.90;70.60;;;22.96;50.54;102516.53;3080713;46;20442;-80
2023/10/08 08:13:27;;;;;;;0.87;0.63;;;21.90;70.60;;;22.99;50.75;102516.09;3081021;46;20446;-81
2023/10/08 08:15:58;;;;;;;0.73;0.70;;;22.00;70.60;;;23.02;50.56;102523.72;3081339;46;20528;-81
2023/10/08 08:18:32;;;;;;;0.70;0.70;;;22.00;70.60;;;23.05;50.48;102531.34;3081609;46;20463;-81
2023/10/08 08:21:02;;;;;;;1.17;0.77;;;22.00;70.60;;;23.09;50.53;102533.41;3081013;46;20442;-80
2023/10/08 08:23:31;;;;;;;0.70;0.60;;;22.00;70.50;;;23.13;50.30;102531.13;3081513;46;21050;-81
2023/10/08 08:26:12;;;;;;;0.77;0.60;;;22.00;70.50;;;23.15;50.15;102539.81;3081430;46;20486;-81
2023/10/08 08:28:41;;;;;;;0.80;0.60;;;22.10;70.60;;;23.18;50.38;102532.13;3081176;46;21007;-80
2023/10/08 08:31:15;;;;;;;1.10;0.70;;;22.10;70.50;;;23.22;50.25;102544.13;3081128;46;20493;-81
2023/10/08 08:33:53;;;;;;;0.70;0.70;;;22.10;70.50;;;23.25;50.08;102550.94;3081402;46;20448;-81
2023/10/08 08:36:23;;;;;;;1.10;0.80;;;22.10;70.40;;;23.26;50.34;102555.25;3081264;46;20423;-81
2023/10/08 08:38:52;;;;;;;0.50;0.50;;;22.10;70.40;;;23.29;49.96;102560.19;3081023;46;20427;-80
2023/10/08 08:41:23;;;;;;;0.57;0.50;;;22.10;70.40;;;23.31;49.83;102555.44;3080456;46;20427;-81
2023/10/08 08:44:04;;;;;;;0.70;0.70;;;22.20;70.50;;;23.34;49.89;102568.44;3080536;46;20427;-81
2023/10/08 08:46:37;;;;;;;0.50;0.50;;;22.20;70.40;;;23.38;50.13;102561.63;3080674;46;20455;-80
2023/10/08 08:49:08;;;;;;;0.60;0.60;;;22.20;70.40;;;23.42;49.99;102560.16;3080972;46;21008;-81
2023/10/08 08:51:38;;;;;;;0.50;0.50;;;22.20;70.30;;;23.47;50.02;102565.72;3080864;46;21025;-80
2023/10/08 08:54:06;;;;;;;0.67;0.67;;;22.20;70.30;;;23.53;49.68;102562.19;3079114;46;20510;-81
2023/10/08 08:56:43;;;;;;;0.70;0.70;;;22.30;70.40;;;23.54;49.64;102558.44;3080563;46;20423;-81
2023/10/08 08:59:12;;;;;;;0.60;0.60;;;22.30;70.30;;;23.58;49.51;102569.59;3080004;46;20439;-80
2023/10/08 09:01:43;;;;;;;0.80;0.60;;;22.30;70.30;;;23.62;49.57;102566.25;3080581;46;20568;-80
2023/10/08 09:04:16;;;;;;;0.70;0.70;;;22.30;70.20;;;23.68;49.48;102570.75;3079891;46;21102;-81
2023/10/08 09:06:45;;;;;;;0.90;0.60;;;22.40;70.30;;;23.70;49.04;102574.06;3079653;46;21091;-81
2023/10/08 09:09:22;;;;;;;0.63;0.63;;;22.40;70.20;;;23.75;49.40;102571.53;3080876;46;20447;-81
2023/10/08 09:11:52;;;;;;;1.00;0.90;;;22.40;70.20;;;23.81;49.32;102572.56;3080606;46;20427;-81
2023/10/08 09:14:27;;;;;;;0.50;0.50;;;22.40;70.10;;;23.86;49.20;102567.34;3079032;46;20435;-80
2023/10/08 09:17:04;;;;;;;0.50;0.50;;;22.50;70.10;;;23.90;48.48;102569.38;3079575;46;20513;-80
2023/10/08 09:19:39;;;;;;;0.67;0.67;;;22.50;69.90;;;23.95;48.76;102577.63;3078876;46;20596;-81
2023/10/08 09:22:11;;;;;;;0.60;0.60;;;22.50;69.80;;;24.01;48.77;102565.97;3079471;46;21025;-81
2023/10/08 09:24:42;;;;;;;0.50;0.50;;;22.60;70.00;;;24.06;48.47;102571.56;3080905;46;20979;-81
2023/10/08 09:27:15;;;;;;;0.70;0.70;;;22.60;70.00;;;24.12;48.58;102568.03;3079492;46;20424;-80
2023/10/08 09:29:44;;;;;;;2.00;0.70;;;22.60;69.80;;;24.18;48.19;102561.75;3079374;46;20439;-80
2023/10/08 09:32:13;;;;;;;0.87;0.60;;;22.70;69.80;;;24.26;48.02;102573.28;3080533;46;20476;-81
2023/10/08 09:34:43;;;;;;;0.70;0.70;;;22.70;69.80;;;24.36;47.72;102573.63;3080509;46;21006;-81
2023/10/08 09:37:12;;;;;;;0.77;0.57;;;22.70;69.70;;;24.47;47.70;102583.66;3079236;46;21139;-81
2023/10/08 09:39:45;;;;;;;0.97;0.80;;;22.70;69.60;;;24.57;47.24;102592.06;3079852;46;20439;-81
2023/10/08 09:42:14;;;;;;;0.67;0.67;;;22.80;69.70;;;24.70;47.59;102602.69;3079447;46;20451;-81
2023/10/08 09:44:43;;;;;;;0.60;0.60;;;22.80;69.60;;;24.79;47.21;102596.03;3079638;46;20517;-81
2023/10/08 09:47:24;;;;;;;0.83;0.73;;;22.90;69.60;;;24.83;47.21;102586.44;3080128;46;20451;-81
2023/10/08 09:50:07;;;;;;;0.87;0.80;;;22.90;69.50;;;24.98;46.91;102583.38;3080108;46;20435;-81
2023/10/08 09:53:04;;;;;;;0.80;0.63;;;22.90;69.30;;;25.22;46.50;102591.38;3079408;46;20427;-81
2023/10/08 09:55:33;;;;;;;0.70;0.70;;;23.00;69.50;;;25.48;46.00;102591.06;3080028;46;21040;-81
2023/10/08 09:58:03;;;;;;;0.60;0.57;;;23.10;69.70;;;25.60;46.12;102601.09;3079767;46;20472;-81
2023/10/08 10:00:32;;;;;;;0.70;0.70;;;23.20;69.60;;;25.79;45.39;102605.41;3079526;46;21039;-81
2023/10/08 10:03:03;;;;;;;0.73;0.73;;;23.30;69.60;;;26.00;45.18;102588.69;3079184;46;20451;-81
2023/10/08 10:05:35;;;;;;;0.90;0.73;;;23.40;69.60;;;26.24;45.00;102568.78;3080057;46;21086;-81
2023/10/08 10:08:05;;;;;;;0.80;0.80;;;23.60;69.30;;;26.34;45.02;102581.72;3078955;46;20455;-81
2023/10/08 10:10:34;;;;;;;1.40;0.73;;;23.80;68.90;;;26.29;44.71;102587.81;3079721;46;20459;-81
2023/10/08 10:13:10;;;;;;;0.97;0.70;;;24.00;68.10;;;26.16;44.31;102588.03;3079862;46;20423;-81
2023/10/08 10:15:42;;;;;;;0.70;0.70;;;24.10;67.40;;;26.04;44.64;102595.25;3078716;46;20431;-81
2023/10/08 10:18:31;;;;;;;0.90;0.90;;;24.10;66.90;;;25.94;44.38;102603.09;3078996;46;20445;-81
2023/10/08 10:21:31;;;;;;;1.47;1.00;;;24.20;66.70;;;26.01;44.85;102590.31;3078888;46;21058;-81
2023/10/08 10:24:00;;;;;;;0.70;0.70;;;24.30;66.90;;;26.19;45.29;102598.38;3078750;46;20478;-81
2023/10/08 10:26:35;;;;;;;0.77;0.70;;;24.60;66.90;;;26.30;44.23;102605.66;3079617;46;20468;-81
2023/10/08 10:29:15;;;;;;;1.90;0.77;;;24.70;66.20;;;26.32;43.97;102587.34;3078975;46;20467;-81
2023/10/08 10:31:47;;;;;;;0.93;0.60;;;24.80;65.20;;;26.26;44.52;102566.69;3079389;46;20423;-81
2023/10/08 10:34:19;;;;;;;0.70;0.70;;;24.90;64.80;;;26.15;44.15;102553.97;3079106;46;20455;-80
2023/10/08 10:36:55;;;;;;;0.50;0.50;;;24.90;64.30;;;26.03;44.36;102547.72;3079656;46;20439;-81
2023/10/08 10:39:33;;;;;;;0.80;0.70;;;24.90;64.00;;;25.88;44.19;102547.34;3078700;46;20447;-81
2023/10/08 10:42:04;;;;;;;1.47;0.90;;;24.70;63.80;;;25.74;44.48;102575.56;3079285;46;21147;-81
2023/10/08 10:44:37;;;;;;;0.60;0.60;;;24.60;63.80;;;25.66;44.80;102594.78;3079532;46;20568;-80
2023/10/08 10:49:53;;;;;;;1.10;0.90;;;24.50;64.10;;;25.49;44.68;102635.88;3079321;46;20498;-81
2023/10/08 10:52:32;;;;;;;0.70;0.70;;;24.40;64.20;;;25.41;45.18;102630.75;3078497;46;20427;-80
2023/10/08 10:55:48;;;;;;;1.20;0.93;;;24.30;64.30;;;25.34;45.23;102608.44;3078598;46;20451;-81
2023/10/08 10:58:11;;;;;;;0.60;0.60;;;24.20;64.30;;;25.27;45.45;102583.44;3078546;46;20427;-81
2023/10/08 11:03:23;;;;;;;0.60;0.60;;;24.10;65.00;;;25.42;45.75;102532.63;3078557;46;20504;-81
2023/10/08 11:06:06;;;;;;;0.60;0.60;;;24.10;65.40;;;25.60;45.48;102574.94;3079132;46;21120;-80
2023/10/08 11:08:34;;;;;;;0.63;0.60;;;24.30;65.70;;;25.72;45.01;102601.97;3078029;46;21045;-81
2023/10/08 11:11:06;;;;;;;0.70;0.60;;;24.40;65.40;;;25.80;45.42;102623.22;3078884;46;21019;-81
2023/10/08 11:13:38;;;;;;;0.87;0.70;;;24.50;65.40;;;25.89;44.70;102624.53;3079322;46;20427;-81
2023/10/08 11:16:09;;;;;;;1.13;0.80;;;24.50;65.10;;;26.04;44.51;102628.47;3078803;46;20423;-81
2023/10/08 11:18:47;;;;;;;0.77;0.77;;;24.70;65.20;;;26.09;44.34;102619.69;3079492;46;20478;-81
2023/10/08 11:21:16;;;;;;;0.67;0.67;;;24.70;64.50;;;26.07;44.05;102629.91;3078948;46;20558;-81
2023/10/08 11:24:24;;;;;;;0.60;0.60;;;24.70;64.20;;;26.01;44.17;102630.78;3078170;46;20434;-80
2023/10/08 11:27:01;;;;;;;0.80;0.80;;;24.80;64.00;;;25.90;44.42;102610.00;3078924;46;20487;-81
2023/10/08 11:29:30;;;;;;;0.70;0.60;;;24.70;63.60;;;25.82;44.33;102602.22;3079149;46;20468;-81
2023/10/08 11:32:00;;;;;;;0.70;0.70;;;24.70;63.60;;;25.73;44.08;102592.81;3078702;46;21072;-81
2023/10/08 11:34:38;;;;;;;1.30;0.63;;;24.60;63.50;;;25.63;44.35;102597.94;3078312;46;20455;-80
2023/10/08 11:37:25;;;;;;;0.83;0.70;;;24.60;63.50;;;25.52;44.63;102597.66;3079004;46;20427;-81
2023/10/08 11:39:58;;;;;;;0.53;0.53;;;24.40;63.50;;;25.42;45.07;102586.56;3079093;46;20435;-81
2023/10/08 11:45:19;;;;;;;0.83;0.70;;;24.30;63.90;;;25.35;44.68;102580.44;3078677;46;20536;-81